createdAt,value
2018-08-20T00:02:05.774Z,42.30
2018-08-20T00:04:39.607Z,41.61
2018-08-20T00:07:08.182Z,42.02
2018-08-20T00:09:41.959Z,41.39
2018-08-20T00:12:10.786Z,42.16
2018-08-20T00:14:39.328Z,42.04
2018-08-20T00:17:08.159Z,42.14
2018-08-20T00:19:36.700Z,41.55
2018-08-20T00:22:06.421Z,42.94
2018-08-20T00:24:34.998Z,42.17
2018-08-20T00:27:03.739Z,42.03
2018-08-20T00:29:35.687Z,42.02
2018-08-20T00:32:05.393Z,42.26
2018-08-20T00:34:33.973Z,42.07
2018-08-20T00:37:02.493Z,42.20
2018-08-20T00:39:31.329Z,42.92
2018-08-20T00:41:59.927Z,42.87
2018-08-20T00:44:28.510Z,42.44
2018-08-20T00:46:57.188Z,43.00
2018-08-20T00:49:25.983Z,42.94
2018-08-20T00:51:54.575Z,42.53
2018-08-20T00:54:23.287Z,42.56
2018-08-20T00:56:52.460Z,43.38
2018-08-20T00:59:21.099Z,42.67
2018-08-20T01:01:49.685Z,42.73
2018-08-20T01:04:19.269Z,43.27
2018-08-20T01:06:47.877Z,43.62
2018-08-20T01:09:16.563Z,43.88
2018-08-20T01:11:45.137Z,43.40
2018-08-20T01:14:14.011Z,44.11
2018-08-20T01:16:42.582Z,43.93
2018-08-20T01:19:11.221Z,43.36
2018-08-20T01:21:39.831Z,43.49
2018-08-20T01:24:08.710Z,44.82
2018-08-20T01:26:37.305Z,45.72
2018-08-20T01:29:05.822Z,46.17
2018-08-20T01:31:34.324Z,46.05
2018-08-20T01:34:03.933Z,46.12
2018-08-20T01:36:32.634Z,46.52
2018-08-20T01:39:01.289Z,46.19
2018-08-20T01:41:30.171Z,46.05
2018-08-20T01:43:58.723Z,45.43
2018-08-20T01:46:27.230Z,45.99
2018-08-20T01:48:55.915Z,45.59
2018-08-20T01:51:24.745Z,45.79
2018-08-20T01:53:53.623Z,45.19
2018-08-20T01:56:22.161Z,45.14
2018-08-20T01:58:50.979Z,44.87
2018-08-20T02:01:19.838Z,44.64
2018-08-20T02:03:48.388Z,45.44
2018-08-20T02:06:16.995Z,46.15
2018-08-20T02:08:45.759Z,46.55
2018-08-20T02:11:14.251Z,46.59
2018-08-20T02:13:42.808Z,45.72
2018-08-20T02:16:11.328Z,46.12
2018-08-20T02:18:40.199Z,45.84
2018-08-20T02:21:08.804Z,46.40
2018-08-20T02:23:37.334Z,46.51
2018-08-20T02:26:06.273Z,45.71
2018-08-20T02:28:34.873Z,45.93
2018-08-20T02:31:03.422Z,46.17
2018-08-20T02:33:32.047Z,46.71
2018-08-20T02:36:02.931Z,46.55
2018-08-20T02:38:31.683Z,47.45
2018-08-20T02:41:00.212Z,47.41
2018-08-20T02:43:28.997Z,47.83
2018-08-20T02:45:57.482Z,47.96
2018-08-20T02:48:26.165Z,48.45
2018-08-20T02:50:54.663Z,48.38
2018-08-20T02:53:23.596Z,47.75
2018-08-20T02:55:52.111Z,48.51
2018-08-20T02:58:21.420Z,48.10
2018-08-20T03:00:50.025Z,49.18
2018-08-20T03:03:19.063Z,48.60
2018-08-20T03:05:47.601Z,48.97
2018-08-20T03:08:16.138Z,50.25
2018-08-20T03:10:44.669Z,50.21
2018-08-20T03:13:13.180Z,50.50
2018-08-20T03:15:41.682Z,50.21
2018-08-20T03:18:10.999Z,49.78
2018-08-20T03:20:39.517Z,50.72
2018-08-20T03:23:08.114Z,51.50
2018-08-20T03:25:36.931Z,51.29
2018-08-20T03:28:06.690Z,51.41
2018-08-20T03:30:35.323Z,51.08
2018-08-20T03:33:04.417Z,51.41
2018-08-20T03:35:32.958Z,51.37
2018-08-20T03:38:01.509Z,51.89
2018-08-20T03:40:30.388Z,51.66
2018-08-20T03:42:58.932Z,51.53
2018-08-20T03:45:27.423Z,51.29
2018-08-20T03:47:56.212Z,51.50
2018-08-20T03:50:24.815Z,51.13
2018-08-20T03:52:53.351Z,51.33
2018-08-20T03:55:21.964Z,51.12
2018-08-20T03:57:50.556Z,50.58
2018-08-20T04:00:23.292Z,51.70
2018-08-20T04:02:53.444Z,51.88
2018-08-20T04:05:22.055Z,52.39
2018-08-20T04:07:50.595Z,52.30
2018-08-20T04:10:20.143Z,52.23
2018-08-20T04:12:48.681Z,52.96
2018-08-20T04:15:17.229Z,52.51
2018-08-20T04:17:45.770Z,52.90
2018-08-20T04:20:14.593Z,52.57
2018-08-20T04:22:43.089Z,54.28
2018-08-20T04:25:22.661Z,54.61
2018-08-20T04:27:51.328Z,57.05
2018-08-20T04:30:20.299Z,56.65
2018-08-20T04:32:48.861Z,56.42
2018-08-20T04:35:20.097Z,56.63
2018-08-20T04:37:48.639Z,56.96
2018-08-20T04:40:18.147Z,57.58
2018-08-20T04:42:46.696Z,57.37
2018-08-20T04:45:15.335Z,56.85
2018-08-20T04:47:43.925Z,57.38
2018-08-20T04:50:12.925Z,57.42
2018-08-20T04:52:41.778Z,57.00
2018-08-20T04:55:10.351Z,57.31
2018-08-20T04:57:39.174Z,58.79
2018-08-20T05:00:09.707Z,58.24
2018-08-20T05:02:38.938Z,59.23
2018-08-20T05:05:07.624Z,59.72
2018-08-20T05:07:36.292Z,59.84
2018-08-20T05:10:05.815Z,59.96
2018-08-20T05:12:34.677Z,59.30
2018-08-20T05:15:03.829Z,59.87
2018-08-20T05:17:32.795Z,59.67
2018-08-20T05:20:02.367Z,59.76
2018-08-20T05:22:31.529Z,59.83
2018-08-20T05:25:00.619Z,60.24
2018-08-20T05:27:29.578Z,60.27
2018-08-20T05:29:58.627Z,60.60
2018-08-20T05:32:28.816Z,60.32
2018-08-20T05:34:58.119Z,59.58
2018-08-20T05:37:27.650Z,60.49
2018-08-20T05:39:57.647Z,60.69
2018-08-20T05:42:26.587Z,60.41
2018-08-20T05:44:56.621Z,59.53
2018-08-20T05:47:25.828Z,59.87
2018-08-20T05:49:54.479Z,59.39
2018-08-20T05:52:23.522Z,59.50
2018-08-20T05:54:52.219Z,61.55
2018-08-20T05:57:20.873Z,61.57
2018-08-20T05:59:49.996Z,61.22
2018-08-20T06:02:19.263Z,61.08
2018-08-20T06:04:47.871Z,60.54
2018-08-20T06:07:17.796Z,59.26
2018-08-20T06:09:53.925Z,58.17
2018-08-20T06:12:23.012Z,58.54
2018-08-20T06:14:52.253Z,57.50
2018-08-20T06:17:20.900Z,57.71
2018-08-20T06:19:49.490Z,57.05
2018-08-20T06:22:18.614Z,57.03
2018-08-20T06:24:47.172Z,58.97
2018-08-20T06:27:16.322Z,57.19
2018-08-20T06:29:45.149Z,56.96
2018-08-20T06:32:13.841Z,56.68
2018-08-20T06:34:42.360Z,55.33
2018-08-20T06:37:11.341Z,55.52
2018-08-20T06:39:39.895Z,55.52
2018-08-20T06:42:08.568Z,55.41
2018-08-20T06:44:37.653Z,55.16
2018-08-20T06:47:06.448Z,54.80
2018-08-20T06:49:34.964Z,54.23
2018-08-20T06:52:04.624Z,54.31
2018-08-20T06:54:39.646Z,54.07
2018-08-20T06:57:08.265Z,53.62
2018-08-20T06:59:36.825Z,53.20
2018-08-20T07:02:06.411Z,52.09
2018-08-20T07:04:35.203Z,52.04
2018-08-20T07:07:03.793Z,52.14
2018-08-20T07:09:32.344Z,51.84
2018-08-20T07:12:00.885Z,52.36
2018-08-20T07:14:30.089Z,52.37
2018-08-20T07:16:59.993Z,51.67
2018-08-20T07:19:28.624Z,51.66
2018-08-20T07:21:57.208Z,52.10
2018-08-20T07:24:26.145Z,50.84
2018-08-20T07:26:54.789Z,51.23
2018-08-20T07:29:41.462Z,50.95
2018-08-20T07:32:11.644Z,51.09
2018-08-20T07:34:42.025Z,50.75
2018-08-20T07:37:12.277Z,51.24
2018-08-20T07:39:43.430Z,50.21
2018-08-20T07:42:12.335Z,49.94
2018-08-20T07:44:46.163Z,50.09
2018-08-20T07:47:20.015Z,50.74
2018-08-20T07:49:48.771Z,50.64
2018-08-20T07:52:17.478Z,49.86
2018-08-20T07:54:46.319Z,49.43
2018-08-20T07:57:14.876Z,49.94
2018-08-20T07:59:43.468Z,49.98
2018-08-20T08:02:12.414Z,49.51
2018-08-20T08:04:41.000Z,49.40
2018-08-20T08:07:09.992Z,49.66
2018-08-20T08:09:38.903Z,49.07
2018-08-20T08:12:09.381Z,50.97
2018-08-20T08:14:37.973Z,51.40
2018-08-20T08:17:07.064Z,49.90
2018-08-20T08:19:35.719Z,49.00
2018-08-20T08:22:04.886Z,48.84
2018-08-20T08:24:33.759Z,49.69
2018-08-20T08:27:02.389Z,48.79
2018-08-20T08:29:31.024Z,49.40
2018-08-20T08:32:00.162Z,49.14
2018-08-20T08:34:28.829Z,49.88
2018-08-20T08:36:57.404Z,48.96
2018-08-20T08:39:26.317Z,49.33
2018-08-20T08:41:54.856Z,48.75
2018-08-20T08:44:23.470Z,47.87
2018-08-20T08:46:52.295Z,47.98
2018-08-20T08:49:20.814Z,47.92
2018-08-20T08:51:49.300Z,47.65
2018-08-20T08:54:18.362Z,47.21
2018-08-20T08:56:46.894Z,47.92
2018-08-20T08:59:15.464Z,47.62
2018-08-20T09:01:44.351Z,48.02
2018-08-20T09:04:12.973Z,47.83
2018-08-20T09:06:41.587Z,46.52
2018-08-20T09:09:10.404Z,47.26
2018-08-20T09:11:39.146Z,46.17
2018-08-20T09:14:07.817Z,46.08
2018-08-20T09:16:36.730Z,46.69
2018-08-20T09:19:05.573Z,48.44
2018-08-20T09:21:34.631Z,47.47
2018-08-20T09:24:04.196Z,46.38
2018-08-20T09:26:32.973Z,47.10
2018-08-20T09:29:01.807Z,47.88
2018-08-20T09:31:30.723Z,46.87
2018-08-20T09:33:59.671Z,46.18
2018-08-20T09:36:28.656Z,47.23
2018-08-20T09:38:57.595Z,47.41
2018-08-20T09:41:26.398Z,46.39
2018-08-20T09:43:56.493Z,46.42
2018-08-20T09:46:25.532Z,45.57
2018-08-20T09:51:31.847Z,44.55
2018-08-20T09:54:00.743Z,43.67
2018-08-20T09:56:29.577Z,42.89
2018-08-20T09:58:58.471Z,42.71
2018-08-20T10:01:27.179Z,42.13
2018-08-20T10:03:56.521Z,40.76
2018-08-20T10:06:25.304Z,40.80
2018-08-20T10:08:53.845Z,40.57
2018-08-20T10:11:22.456Z,41.18
2018-08-20T10:13:51.591Z,42.88
2018-08-20T10:16:20.184Z,43.16
2018-08-20T10:18:49.062Z,42.72
2018-08-20T10:21:19.648Z,42.22
2018-08-20T10:23:48.199Z,42.26
2018-08-20T10:26:16.921Z,42.16
2018-08-20T10:28:45.896Z,41.16
2018-08-20T10:31:16.388Z,41.83
2018-08-20T10:33:45.107Z,42.30
2018-08-20T10:36:13.979Z,41.63
2018-08-20T10:38:42.866Z,43.19
2018-08-20T10:41:11.663Z,43.86
2018-08-20T10:43:40.654Z,44.53
2018-08-20T10:46:14.682Z,45.07
2018-08-20T10:48:43.291Z,44.63
2018-08-20T10:51:11.945Z,44.48
2018-08-20T10:53:41.062Z,44.56
2018-08-20T10:56:09.644Z,43.69
2018-08-20T10:58:38.299Z,43.39
2018-08-20T11:01:07.825Z,43.01
2018-08-20T11:03:36.483Z,44.83
2018-08-20T11:06:05.912Z,45.11
2018-08-20T11:08:34.771Z,46.44
2018-08-20T11:11:03.415Z,46.83
2018-08-20T11:13:32.442Z,46.51
2018-08-20T11:16:01.348Z,46.01
2018-08-20T11:18:30.292Z,45.24
2018-08-20T11:20:58.779Z,45.61
2018-08-20T11:23:27.560Z,45.23
2018-08-20T11:25:56.219Z,45.29
2018-08-20T11:28:24.803Z,45.12
2018-08-20T11:30:54.657Z,45.66
2018-08-20T11:33:23.307Z,45.98
2018-08-20T11:35:51.856Z,44.87
2018-08-20T11:38:20.398Z,44.66
2018-08-20T11:40:48.991Z,45.38
2018-08-20T11:43:17.859Z,45.93
2018-08-20T11:45:46.528Z,44.90
2018-08-20T11:48:15.484Z,45.38
2018-08-20T11:50:44.187Z,45.10
2018-08-20T11:53:12.791Z,45.46
2018-08-20T11:55:41.685Z,44.98
2018-08-20T11:58:10.296Z,44.67
2018-08-20T12:00:39.069Z,44.02
2018-08-20T12:03:08.027Z,44.68
2018-08-20T12:05:36.653Z,44.16
2018-08-20T12:08:06.508Z,43.92
2018-08-20T12:10:35.371Z,43.63
2018-08-20T12:13:03.974Z,43.68
2018-08-20T12:15:32.508Z,43.10
2018-08-20T12:18:03.150Z,43.67
2018-08-20T12:20:31.687Z,42.62
2018-08-20T12:23:00.255Z,43.24
2018-08-20T12:25:29.280Z,42.68
2018-08-20T12:27:57.862Z,43.10
2018-08-20T12:30:26.532Z,41.40
2018-08-20T12:32:55.324Z,39.54
2018-08-20T12:35:23.872Z,39.10
2018-08-20T12:37:52.456Z,37.53
2018-08-20T12:40:21.723Z,35.64
2018-08-20T12:42:50.279Z,35.54
2018-08-20T12:45:18.878Z,35.62
2018-08-20T12:47:47.805Z,35.50
2018-08-20T12:50:16.655Z,36.41
2018-08-20T12:52:45.428Z,36.88
2018-08-20T12:55:14.279Z,36.71
2018-08-20T12:57:43.011Z,37.13
2018-08-20T13:00:11.611Z,37.38
2018-08-20T13:02:40.252Z,36.59
2018-08-20T13:05:08.868Z,37.78
2018-08-20T13:07:37.897Z,37.18
2018-08-20T13:10:06.803Z,37.21
2018-08-20T13:12:35.381Z,37.53
2018-08-20T13:15:04.073Z,39.37
2018-08-20T13:17:32.769Z,38.99
2018-08-20T13:20:02.269Z,38.79
2018-08-20T13:22:30.857Z,39.14
2018-08-20T13:24:59.476Z,38.65
2018-08-20T13:27:28.367Z,39.65
2018-08-20T13:29:56.982Z,39.54
2018-08-20T13:32:25.726Z,40.34
2018-08-20T13:34:54.581Z,39.52
2018-08-20T13:37:23.186Z,38.83
2018-08-20T13:39:51.706Z,39.21
2018-08-20T13:42:20.597Z,38.62
2018-08-20T13:44:49.211Z,38.73
2018-08-20T13:47:17.876Z,38.08
2018-08-20T13:49:47.094Z,37.54
2018-08-20T13:52:16.125Z,34.52
2018-08-20T13:54:44.780Z,32.11
2018-08-20T13:57:13.580Z,29.92
2018-08-20T13:59:42.194Z,29.70
2018-08-20T14:02:10.746Z,27.32
2018-08-20T14:04:39.707Z,26.21
2018-08-20T14:07:08.218Z,25.24
2018-08-20T14:09:36.740Z,24.40
2018-08-20T14:12:05.903Z,23.89
2018-08-20T14:14:34.441Z,27.13
2018-08-20T14:17:03.516Z,29.55
2018-08-20T14:19:32.454Z,29.13
2018-08-20T14:22:01.051Z,25.45
2018-08-20T14:24:29.722Z,24.78
2018-08-20T14:26:58.495Z,23.82
2018-08-20T14:29:27.067Z,29.61
2018-08-20T14:31:55.915Z,31.01
2018-08-20T14:34:24.455Z,31.19
2018-08-20T14:36:53.155Z,31.01
2018-08-20T14:39:21.691Z,33.87
2018-08-20T14:41:50.342Z,33.35
2018-08-20T14:44:19.499Z,34.06
2018-08-20T14:46:48.225Z,34.17
2018-08-20T14:49:16.775Z,32.55
2018-08-20T14:51:45.471Z,30.72
2018-08-20T14:54:14.155Z,30.60
2018-08-20T14:56:43.044Z,28.86
2018-08-20T14:59:11.707Z,28.17
2018-08-20T15:01:40.258Z,26.58
2018-08-20T15:06:59.243Z,29.06
2018-08-20T15:09:28.961Z,29.53
2018-08-20T15:11:57.848Z,32.60
2018-08-20T15:14:26.446Z,29.28
2018-08-20T15:16:55.996Z,32.06
2018-08-20T15:19:24.565Z,32.03
2018-08-20T15:21:53.108Z,32.27
2018-08-20T15:24:21.931Z,32.12
2018-08-20T15:26:50.908Z,33.03
2018-08-20T15:29:20.018Z,33.79
2018-08-20T15:31:48.997Z,33.31
2018-08-20T15:34:18.525Z,33.71
2018-08-20T15:36:47.077Z,33.30
2018-08-20T15:39:15.691Z,34.01
2018-08-20T15:41:44.195Z,34.61
2018-08-20T15:44:13.040Z,34.46
2018-08-20T15:46:41.651Z,34.14
2018-08-20T15:49:10.219Z,33.92
2018-08-20T15:51:38.802Z,34.47
2018-08-20T15:54:07.838Z,33.86
2018-08-20T15:56:36.428Z,32.28
2018-08-20T15:59:05.071Z,31.64
2018-08-20T16:01:34.094Z,31.40
2018-08-20T16:04:04.444Z,31.04
2018-08-20T16:06:33.031Z,32.34
2018-08-20T16:09:01.901Z,31.14
2018-08-20T16:11:30.477Z,32.00
2018-08-20T16:13:59.328Z,31.45
2018-08-20T16:16:28.259Z,31.69
2018-08-20T16:18:57.163Z,32.50
2018-08-20T16:21:25.711Z,32.41
2018-08-20T16:23:54.725Z,31.98
2018-08-20T16:26:23.298Z,32.84
2018-08-20T16:28:51.881Z,33.64
2018-08-20T16:31:20.730Z,33.02
2018-08-20T16:33:49.983Z,32.74
2018-08-20T16:36:19.152Z,32.53
2018-08-20T16:38:48.306Z,31.96
2018-08-20T16:41:16.867Z,31.49
2018-08-20T16:43:45.455Z,31.78
2018-08-20T16:46:14.310Z,31.20
2018-08-20T16:48:43.008Z,31.17
2018-08-20T16:51:11.673Z,31.64
2018-08-20T16:53:40.912Z,31.25
2018-08-20T16:56:10.020Z,31.95
2018-08-20T16:58:38.653Z,30.89
2018-08-20T17:01:16.730Z,30.92
2018-08-20T17:03:45.267Z,31.37
2018-08-20T17:06:14.365Z,32.34
2018-08-20T17:08:43.955Z,31.27
2018-08-20T17:11:13.008Z,31.54
2018-08-20T17:13:42.089Z,32.54
2018-08-20T17:16:12.696Z,32.16
2018-08-20T17:18:41.399Z,31.96
2018-08-20T17:21:10.460Z,32.47
2018-08-20T17:23:39.154Z,33.23
2018-08-20T17:26:08.455Z,32.60
2018-08-20T17:28:37.056Z,32.74
2018-08-20T17:31:12.860Z,33.60
2018-08-20T17:33:41.895Z,34.18
2018-08-20T17:36:10.414Z,34.94
2018-08-20T17:38:39.067Z,34.49
2018-08-20T17:41:09.070Z,35.28
2018-08-20T17:43:37.708Z,34.91
2018-08-20T17:46:06.348Z,36.25
2018-08-20T17:48:35.229Z,35.39
2018-08-20T17:51:03.910Z,36.06
2018-08-20T17:53:43.430Z,36.31
2018-08-20T17:56:12.753Z,35.44
2018-08-20T17:58:41.288Z,36.44
2018-08-20T18:01:09.957Z,36.08
2018-08-20T18:03:38.548Z,36.46
2018-08-20T18:06:08.467Z,35.98
2018-08-20T18:08:37.121Z,36.71
2018-08-20T18:11:06.904Z,36.37
2018-08-20T18:13:47.904Z,36.23
2018-08-20T18:16:17.724Z,36.63
2018-08-20T18:18:50.686Z,37.10
2018-08-20T18:21:20.076Z,36.85
2018-08-20T18:23:50.696Z,37.38
2018-08-20T18:26:30.067Z,36.51
2018-08-20T18:28:58.707Z,37.05
2018-08-20T18:31:28.247Z,36.97
2018-08-20T18:33:56.925Z,36.89
2018-08-20T18:36:26.994Z,37.28
2018-08-20T18:38:59.555Z,37.65
2018-08-20T18:41:48.666Z,38.11
2018-08-20T18:44:17.527Z,36.98
2018-08-20T18:46:46.061Z,37.25
2018-08-20T18:49:14.855Z,37.71
2018-08-20T18:51:43.766Z,37.97
2018-08-20T18:54:12.420Z,37.89
2018-08-20T18:56:41.158Z,37.89
2018-08-20T18:59:10.084Z,38.69
2018-08-20T19:01:38.795Z,38.34
2018-08-20T19:04:07.475Z,38.55
2018-08-20T19:06:39.006Z,38.00
2018-08-20T19:09:10.904Z,38.30
2018-08-20T19:11:39.487Z,38.17
2018-08-20T19:14:12.692Z,39.47
2018-08-20T19:16:41.331Z,38.65
2018-08-20T19:19:09.898Z,38.94
2018-08-20T19:21:41.295Z,39.13
2018-08-20T19:24:10.935Z,38.84
2018-08-20T19:26:39.560Z,40.01
2018-08-20T19:29:19.509Z,39.36
2018-08-20T19:31:48.249Z,40.61
2018-08-20T19:34:17.417Z,40.55
2018-08-20T19:36:45.994Z,39.94
2018-08-20T19:39:14.511Z,40.87
2018-08-20T19:41:43.399Z,40.67
2018-08-20T19:44:11.960Z,40.97
2018-08-20T19:46:40.516Z,41.42
2018-08-20T19:49:10.680Z,42.22
2018-08-20T19:51:41.069Z,41.69
2018-08-20T19:54:11.578Z,42.88
2018-08-20T19:56:40.151Z,43.10
2018-08-20T19:59:09.068Z,43.17
2018-08-20T20:01:38.035Z,42.71
2018-08-20T20:04:06.590Z,43.17
2018-08-20T20:06:35.176Z,43.10
2018-08-20T20:09:08.150Z,43.64
2018-08-20T20:11:45.666Z,43.84
2018-08-20T20:14:14.563Z,43.98
2018-08-20T20:16:48.375Z,45.07
2018-08-20T20:19:17.014Z,44.98
2018-08-20T20:21:45.572Z,44.39
2018-08-20T20:24:14.335Z,45.31
2018-08-20T20:26:43.274Z,45.29
2018-08-20T20:29:12.166Z,44.88
2018-08-20T20:31:41.830Z,44.91
2018-08-20T20:34:10.850Z,45.74
2018-08-20T20:36:39.571Z,45.63
2018-08-20T20:39:10.623Z,44.96
2018-08-20T20:41:39.262Z,45.20
2018-08-20T20:44:08.450Z,46.07
2018-08-20T20:46:37.387Z,46.23
2018-08-20T20:49:06.024Z,46.14
2018-08-20T20:51:34.583Z,45.74
2018-08-20T20:54:04.254Z,45.48
2018-08-20T20:56:32.798Z,45.22
2018-08-20T20:59:01.400Z,46.43
2018-08-20T21:01:30.245Z,46.24
2018-08-20T21:03:58.879Z,46.24
2018-08-20T21:06:27.419Z,46.34
2018-08-20T21:08:58.265Z,45.74
2018-08-20T21:11:26.765Z,46.41
2018-08-20T21:13:55.923Z,45.65
2018-08-20T21:16:25.568Z,46.24
2018-08-20T21:18:55.628Z,46.60
2018-08-20T21:21:24.772Z,47.10
2018-08-20T21:23:53.677Z,46.98
2018-08-20T21:26:22.218Z,46.84
2018-08-20T21:28:51.763Z,46.48
2018-08-20T21:31:21.740Z,47.02
2018-08-20T21:34:03.537Z,47.25
2018-08-20T21:36:32.360Z,47.41
2018-08-20T21:39:00.910Z,47.46
2018-08-20T21:41:30.059Z,47.09
2018-08-20T21:43:58.892Z,47.76
2018-08-20T21:46:27.413Z,47.61
2018-08-20T21:48:55.992Z,47.58
2018-08-20T21:51:26.556Z,47.49
2018-08-20T21:53:55.284Z,48.13
2018-08-20T21:56:23.975Z,47.30
2018-08-20T21:58:52.832Z,47.55
2018-08-20T22:01:21.478Z,48.17
2018-08-20T22:03:50.038Z,47.58
2018-08-20T22:06:19.129Z,47.81
2018-08-20T22:08:47.728Z,47.86
2018-08-20T22:11:16.222Z,47.58
2018-08-20T22:13:44.976Z,48.29
2018-08-20T22:16:19.805Z,48.49
2018-08-20T22:18:53.531Z,47.83
2018-08-20T22:21:22.311Z,48.39
2018-08-20T22:23:50.936Z,48.62
2018-08-20T22:26:20.769Z,48.47
2018-08-20T22:28:51.066Z,47.71
2018-08-20T22:31:19.897Z,48.51
2018-08-20T22:33:55.055Z,48.45
2018-08-20T22:36:24.132Z,47.71
2018-08-20T22:38:53.895Z,47.57
2018-08-20T22:41:23.616Z,48.13
2018-08-20T22:43:52.239Z,47.75
2018-08-20T22:47:50.783Z,48.69
2018-08-20T22:50:19.583Z,48.75
2018-08-20T22:52:49.547Z,48.32
2018-08-20T22:55:19.226Z,48.66
2018-08-20T22:57:59.468Z,48.88
2018-08-20T23:00:28.450Z,49.23
2018-08-20T23:02:57.902Z,49.40
2018-08-20T23:05:29.804Z,49.64
2018-08-20T23:08:07.727Z,49.06
2018-08-20T23:10:40.236Z,48.88
2018-08-20T23:13:08.751Z,49.50
2018-08-20T23:15:37.300Z,49.22
2018-08-20T23:18:06.319Z,49.15
2018-08-20T23:20:34.850Z,49.14
2018-08-20T23:23:03.411Z,49.23
2018-08-20T23:25:32.264Z,49.56
2018-08-20T23:28:00.822Z,49.94
2018-08-20T23:30:29.412Z,49.42
2018-08-20T23:32:58.387Z,50.20
2018-08-20T23:35:26.912Z,50.18
2018-08-20T23:37:55.420Z,49.36
2018-08-20T23:40:24.167Z,49.66
2018-08-20T23:42:52.668Z,50.36
2018-08-20T23:45:21.219Z,49.84
2018-08-20T23:47:49.733Z,50.16
2018-08-20T23:50:19.055Z,49.53
2018-08-20T23:52:47.651Z,49.81
2018-08-20T23:55:16.135Z,49.58
2018-08-20T23:57:44.653Z,50.10
